Time;durP1;ratioP1;P1;durP2;ratioP2;P2;SDS_P1;SDS_P2;PMS_P1;PMS_P2;Temp;Humidity;BMP_temperature;BMP_pressure;BME280_temperature;BME280_humidity;BME280_pressure;Samples;Min_cycle;Max_cycle;Signal;HPM_P1;HPM_P2
2024/03/03 05:31:05;;;;;;;5.90;3.20;;;;;;;5.67;85.39;100972.08;106462;1254;61384;-87
2024/03/03 05:33:39;;;;;;;8.00;3.00;;;;;;;5.75;84.90;100973.41;106357;1253;61310;-84
2024/03/03 05:36:13;;;;;;;6.60;3.70;;;;;;;5.78;84.76;100972.20;106314;1251;73323;-87
2024/03/03 05:38:53;;;;;;;5.80;3.10;;;;;;;5.82;84.46;100977.29;106463;1257;68510;-87
2024/03/03 05:41:26;;;;;;;5.90;3.10;;;;;;;5.79;84.75;100976.05;106362;1257;71400;-86
2024/03/03 05:43:54;;;;;;;6.50;3.40;;;;;;;5.76;84.75;100984.78;106655;1251;61539;-84
2024/03/03 05:46:34;;;;;;;7.20;3.70;;;;;;;5.78;85.05;100982.06;106527;1266;61276;-88
2024/03/03 05:49:15;;;;;;;5.10;2.90;;;;;;;5.84;84.44;100985.77;106403;1258;74635;-83
2024/03/03 05:51:56;;;;;;;5.20;3.10;;;;;;;5.85;83.20;100988.04;106470;1257;68593;-86
2024/03/03 05:54:23;;;;;;;3.70;2.70;;;;;;;5.90;83.07;100988.59;106467;1254;72672;-85
2024/03/03 05:57:04;;;;;;;3.50;2.50;;;;;;;5.91;82.78;100988.58;106457;1260;61252;-88
2024/03/03 05:59:45;;;;;;;4.50;2.90;;;;;;;5.97;82.79;100992.17;106483;1254;61366;-86
2024/03/03 06:02:21;;;;;;;4.80;3.00;;;;;;;5.94;83.24;100992.63;106376;1251;73566;-84
2024/03/03 06:04:55;;;;;;;6.70;2.60;;;;;;;5.93;83.28;100997.02;107251;1254;67594;-83
2024/03/03 06:07:35;;;;;;;4.90;3.00;;;;;;;5.89;82.97;100993.13;106384;1254;72661;-83
2024/03/03 06:10:15;;;;;;;9.10;3.50;;;;;;;5.99;82.89;100994.10;106507;1251;61240;-85
2024/03/03 06:12:49;;;;;;;8.30;2.80;;;;;;;6.06;82.70;100993.06;106544;1254;61238;-87
2024/03/03 06:15:23;;;;;;;13.30;3.40;;;;;;;6.03;82.05;100996.29;106703;1251;73356;-88
2024/03/03 06:18:04;;;;;;;4.70;2.90;;;;;;;6.04;82.50;100996.39;106541;1251;68455;-88
2024/03/03 06:20:44;;;;;;;7.00;3.00;;;;;;;6.04;82.70;101000.23;107193;1254;72650;-88
2024/03/03 06:23:18;;;;;;;4.10;2.50;;;;;;;6.05;83.12;101002.71;106481;1254;61362;-88
2024/03/03 06:25:52;;;;;;;5.90;3.20;;;;;;;6.04;83.35;101004.40;106531;1256;61279;-88
2024/03/03 06:28:32;;;;;;;9.90;3.80;;;;;;;6.07;82.96;101007.83;106492;1251;73369;-86
2024/03/03 06:31:12;;;;;;;19.90;10.90;;;;;;;6.17;81.95;101005.80;106466;1257;67471;-89
2024/03/03 06:33:46;;;;;;;5.60;3.20;;;;;;;6.25;82.27;101008.70;106694;1255;72468;-87
2024/03/03 06:36:26;;;;;;;15.70;5.30;;;;;;;6.33;80.81;101011.05;106330;1254;61329;-88
2024/03/03 06:39:09;;;;;;;8.60;3.90;;;;;;;6.38;80.77;101011.92;106426;1251;61266;-89
2024/03/03 06:41:50;;;;;;;10.60;4.40;;;;;;;6.41;80.61;101011.21;106467;1254;73549;-89
2024/03/03 06:44:24;;;;;;;7.80;3.30;;;;;;;6.51;80.09;101014.63;106314;1251;68443;-89
2024/03/03 06:46:58;;;;;;;5.50;2.80;;;;;;;6.57;79.81;101010.19;106471;1257;72804;-85
2024/03/03 06:49:39;;;;;;;5.00;3.20;;;;;;;6.62;79.42;101018.90;106415;1254;61365;-88
2024/03/03 06:52:18;;;;;;;7.20;2.90;;;;;;;6.65;78.40;101013.09;106623;1253;61398;-88
2024/03/03 06:54:53;;;;;;;4.90;2.70;;;;;;;6.69;78.07;101012.20;106653;1252;73369;-87
2024/03/03 06:57:27;;;;;;;6.50;3.30;;;;;;;6.69;78.60;101013.83;106632;1254;67176;-88
2024/03/03 07:00:07;;;;;;;5.00;2.80;;;;;;;6.70;78.67;101012.83;106488;1252;71392;-86
2024/03/03 07:02:57;;;;;;;5.80;2.90;;;;;;;6.81;77.64;101014.40;106518;1257;61366;-86
2024/03/03 07:05:37;;;;;;;6.80;3.30;;;;;;;6.85;76.46;101015.26;106507;1257;61184;-87
2024/03/03 07:08:05;;;;;;;5.50;2.80;;;;;;;6.97;75.26;101012.38;106632;1257;74827;-87
2024/03/03 07:10:46;;;;;;;6.10;3.20;;;;;;;7.01;74.51;101013.22;106502;1253;67549;-89
2024/03/03 07:13:26;;;;;;;13.20;3.60;;;;;;;7.01;73.60;101010.08;106459;1257;72484;-87
2024/03/03 07:16:00;;;;;;;5.10;3.00;;;;;;;7.03;74.29;101013.69;106653;1256;61382;-87
2024/03/03 07:18:34;;;;;;;11.40;4.70;;;;;;;7.19;74.06;101014.37;106737;1257;59630;-87
2024/03/03 07:21:15;;;;;;;8.60;3.50;;;;;;;7.30;73.41;101015.78;106615;1253;74781;-86
2024/03/03 07:23:56;;;;;;;8.90;4.10;;;;;;;7.37;72.45;101015.48;106535;1254;68840;-86
2024/03/03 07:26:30;;;;;;;7.70;4.20;;;;;;;7.40;71.18;101014.15;106617;1253;72396;-85
2024/03/03 07:29:04;;;;;;;4.70;3.00;;;;;;;7.45;70.14;101019.20;106706;1254;61334;-86
2024/03/03 07:31:44;;;;;;;9.50;4.30;;;;;;;7.48;68.58;101017.61;106593;1253;61188;-88
2024/03/03 07:34:25;;;;;;;7.70;3.50;;;;;;;7.49;68.41;101019.98;106540;1253;75318;-84
2024/03/03 07:37:05;;;;;;;4.50;3.20;;;;;;;7.45;67.69;101015.46;108317;1254;67433;-83
2024/03/03 07:39:45;;;;;;;5.90;3.20;;;;;;;7.45;67.23;101014.70;106530;1252;72806;-87
2024/03/03 07:42:25;;;;;;;7.60;3.20;;;;;;;7.52;67.45;101018.73;106532;1254;62749;-86
2024/03/03 07:45:05;;;;;;;6.00;3.00;;;;;;;7.56;67.28;101015.59;106501;1253;62808;-87
2024/03/03 07:47:45;;;;;;;5.50;3.40;;;;;;;7.67;66.47;101017.25;106353;1255;74687;-87
2024/03/03 07:50:25;;;;;;;5.30;3.00;;;;;;;7.65;66.27;101017.77;106519;1255;67444;-88
2024/03/03 07:53:05;;;;;;;5.40;3.00;;;;;;;7.65;65.41;101023.73;106392;1253;71394;-87
2024/03/03 07:55:45;;;;;;;4.60;3.00;;;;;;;7.65;64.24;101021.51;106429;1256;61546;-87
2024/03/03 07:58:25;;;;;;;5.90;3.10;;;;;;;7.61;65.11;101020.19;106596;1253;61369;-86
2024/03/03 08:01:05;;;;;;;5.40;3.00;;;;;;;7.62;64.84;101023.36;106699;1253;74636;-86
2024/03/03 08:03:45;;;;;;;4.50;2.50;;;;;;;7.73;64.38;101030.95;106469;1252;67438;-85
2024/03/03 08:06:25;;;;;;;9.50;3.70;;;;;;;7.74;63.18;101031.41;106684;1253;71266;-87
2024/03/03 08:09:06;;;;;;;8.40;3.20;;;;;;;7.76;62.82;101033.89;106790;1254;61313;-86
2024/03/03 08:11:46;;;;;;;6.60;3.00;;;;;;;7.82;62.77;101038.70;106528;1254;61300;-85
2024/03/03 08:14:26;;;;;;;7.00;3.40;;;;;;;7.82;62.92;101039.52;106549;1253;75337;-87
2024/03/03 08:17:06;;;;;;;8.40;4.20;;;;;;;7.88;62.85;101036.81;106478;1257;67397;-85
2024/03/03 08:19:46;;;;;;;3.90;3.00;;;;;;;7.89;63.24;101039.48;106607;1257;71391;-84
2024/03/03 08:22:26;;;;;;;5.90;2.80;;;;;;;7.86;61.97;101037.67;106417;1253;61263;-86
2024/03/03 08:25:06;;;;;;;6.80;3.20;;;;;;;7.83;62.05;101037.64;106984;1253;61109;-85
2024/03/03 08:27:46;;;;;;;6.20;3.40;;;;;;;7.79;62.39;101037.30;106609;1253;73421;-85
2024/03/03 08:30:26;;;;;;;8.00;3.60;;;;;;;7.79;62.94;101037.79;107726;1252;68902;-86
2024/03/03 08:33:07;;;;;;;4.80;2.90;;;;;;;7.83;62.86;101040.31;106558;1253;72430;-86
2024/03/03 08:35:47;;;;;;;8.90;3.30;;;;;;;7.86;62.90;101043.20;106668;1254;61154;-87
2024/03/03 08:38:28;;;;;;;8.50;4.00;;;;;;;7.87;62.80;101046.80;106739;1252;61128;-86
2024/03/03 08:41:09;;;;;;;9.30;4.10;;;;;;;7.92;62.02;101049.16;106561;1253;74729;-86
2024/03/03 08:43:49;;;;;;;11.80;4.30;;;;;;;7.91;61.95;101046.15;106694;1254;68403;-85
2024/03/03 08:46:29;;;;;;;7.20;3.60;;;;;;;7.97;61.66;101044.27;106518;1251;72668;-87
2024/03/03 08:49:10;;;;;;;8.10;3.50;;;;;;;8.01;61.74;101049.36;106573;1257;61523;-87
2024/03/03 08:51:50;;;;;;;8.40;4.20;;;;;;;7.94;61.93;101046.42;106698;1254;62056;-86
2024/03/03 08:54:30;;;;;;;7.80;4.00;;;;;;;7.94;62.86;101049.64;106534;1251;75190;-87
2024/03/03 08:57:10;;;;;;;7.90;3.90;;;;;;;8.00;62.25;101050.42;106569;1256;68844;-88
2024/03/03 08:59:51;;;;;;;7.10;3.70;;;;;;;8.00;62.15;101054.41;106503;1253;72685;-87
2024/03/03 09:02:25;;;;;;;5.00;3.30;;;;;;;7.99;62.04;101056.25;106586;1253;61225;-87
2024/03/03 09:05:05;;;;;;;6.20;3.90;;;;;;;8.00;61.41;101057.13;106491;1253;61321;-87
2024/03/03 09:07:45;;;;;;;6.50;3.40;;;;;;;8.00;62.11;101062.20;106717;1254;74657;-85
2024/03/03 09:10:25;;;;;;;5.10;2.80;;;;;;;7.96;61.75;101065.30;107550;1252;70642;-88
2024/03/03 09:13:05;;;;;;;10.00;4.00;;;;;;;8.09;60.95;101064.64;106491;1253;71403;-87
2024/03/03 09:15:45;;;;;;;7.20;3.70;;;;;;;8.10;61.30;101063.73;106378;1253;61340;-88
2024/03/03 09:18:25;;;;;;;8.80;4.80;;;;;;;8.14;61.34;101063.56;106751;1253;62797;-89
2024/03/03 09:21:05;;;;;;;8.20;4.00;;;;;;;8.23;60.76;101059.40;106483;1257;74953;-88
2024/03/03 09:23:46;;;;;;;6.40;3.80;;;;;;;8.21;60.33;101059.91;106456;1254;68379;-86
2024/03/03 09:26:26;;;;;;;5.00;3.30;;;;;;;8.16;60.86;101058.52;106800;1253;73407;-88
2024/03/03 09:29:06;;;;;;;7.20;3.20;;;;;;;8.28;60.35;101057.73;106367;1258;61267;-88
2024/03/03 09:31:46;;;;;;;6.50;3.40;;;;;;;8.28;60.75;101056.77;106356;1255;61178;-87
2024/03/03 09:34:26;;;;;;;6.80;3.90;;;;;;;8.32;60.67;101052.20;106374;1253;76997;-87
2024/03/03 09:37:06;;;;;;;14.90;5.50;;;;;;;8.40;60.38;101056.52;106459;1253;69719;-87
2024/03/03 09:39:46;;;;;;;8.60;3.70;;;;;;;8.57;59.66;101053.22;107117;1252;72723;-86
2024/03/03 09:42:26;;;;;;;10.30;4.40;;;;;;;8.75;59.22;101054.24;106464;1251;61247;-86
2024/03/03 09:45:05;;;;;;;9.70;4.50;;;;;;;8.86;58.60;101052.79;106580;1256;61270;-86
2024/03/03 09:47:46;;;;;;;9.80;3.90;;;;;;;8.89;57.75;101048.00;106560;1251;78268;-84
2024/03/03 09:50:26;;;;;;;5.80;3.40;;;;;;;8.94;57.29;101045.81;106578;1253;70227;-85
2024/03/03 09:53:06;;;;;;;5.70;3.00;;;;;;;8.92;57.30;101046.45;106426;1253;73815;-87
2024/03/03 09:55:46;;;;;;;9.40;4.10;;;;;;;8.84;57.44;101045.52;106374;1257;61250;-86
2024/03/03 09:58:26;;;;;;;7.30;3.80;;;;;;;8.85;57.56;101044.77;106412;1251;62131;-85
2024/03/03 10:01:01;;;;;;;6.90;3.70;;;;;;;8.88;58.34;101045.57;106480;1257;73343;-84
2024/03/03 10:03:42;;;;;;;7.50;3.50;;;;;;;8.93;58.88;101050.70;106396;1253;70354;-83
2024/03/03 10:06:24;;;;;;;7.50;3.90;;;;;;;9.05;58.61;101051.73;106730;1253;74743;-83
2024/03/03 10:09:04;;;;;;;9.00;4.20;;;;;;;9.17;58.54;101054.37;106636;1253;61186;-84
2024/03/03 10:11:44;;;;;;;6.40;3.40;;;;;;;9.22;58.03;101054.42;107933;1251;60009;-85
2024/03/03 10:14:24;;;;;;;8.80;3.50;;;;;;;9.35;58.22;101051.67;106378;1253;76482;-86
2024/03/03 10:17:05;;;;;;;6.70;3.60;;;;;;;9.41;57.52;101052.13;106583;1253;68755;-88
2024/03/03 10:19:45;;;;;;;5.90;3.60;;;;;;;9.39;57.48;101052.81;106593;1252;71624;-85
2024/03/03 10:22:26;;;;;;;7.30;4.10;;;;;;;9.40;57.49;101048.79;106513;1253;61280;-86
2024/03/03 10:25:23;;;;;;;10.20;4.40;;;;;;;9.45;56.85;101052.23;106371;1257;61147;-87
2024/03/03 10:28:17;;;;;;;9.90;4.20;;;;;;;9.45;56.33;101056.53;106427;1254;75787;-86
2024/03/03 10:31:18;;;;;;;5.90;3.60;;;;;;;9.58;55.14;101052.98;106494;1251;69655;-85
2024/03/03 10:34:00;;;;;;;8.70;3.80;;;;;;;9.50;54.90;101053.36;106478;1253;71108;-87
2024/03/03 10:36:40;;;;;;;8.30;3.80;;;;;;;9.34;54.94;101052.81;106537;1253;61241;-85
2024/03/03 10:39:23;;;;;;;7.10;4.20;;;;;;;9.28;56.28;101052.69;106376;1251;61270;-83
2024/03/03 10:42:03;;;;;;;7.00;3.90;;;;;;;9.36;56.62;101047.83;106458;1251;76986;-86
2024/03/03 10:44:44;;;;;;;6.60;3.70;;;;;;;9.59;56.87;101047.18;106577;1253;71279;-85
2024/03/03 10:47:23;;;;;;;6.30;3.80;;;;;;;9.79;55.31;101043.65;107103;1251;73829;-87
2024/03/03 10:50:05;;;;;;;11.50;5.00;;;;;;;9.89;54.36;101040.14;106410;1254;61385;-83
2024/03/03 10:52:45;;;;;;;6.10;3.60;;;;;;;9.98;54.09;101038.13;106615;1253;61313;-87
2024/03/03 10:55:25;;;;;;;6.70;3.70;;;;;;;10.07;53.54;101043.05;106547;1254;75980;-85
2024/03/03 10:58:05;;;;;;;7.10;4.30;;;;;;;10.09;53.11;101038.81;106707;1253;70324;-85
2024/03/03 11:00:45;;;;;;;12.80;4.60;;;;;;;10.21;51.84;101034.09;106508;1253;73779;-85
2024/03/03 11:03:25;;;;;;;9.20;4.50;;;;;;;10.30;51.74;101032.97;106448;1253;61540;-83
2024/03/03 11:06:06;;;;;;;10.40;4.50;;;;;;;10.50;52.63;101030.16;106994;1255;62380;-84
2024/03/03 11:08:49;;;;;;;6.40;3.90;;;;;;;10.74;51.55;101030.66;106450;1253;76318;-86
2024/03/03 11:11:30;;;;;;;23.70;9.90;;;;;;;10.83;50.34;101026.81;106419;1253;71677;-85
2024/03/03 11:14:16;;;;;;;11.40;5.40;;;;;;;10.87;50.02;101029.13;106547;1253;71729;-87
2024/03/03 11:16:56;;;;;;;6.70;3.70;;;;;;;10.77;49.04;101027.45;106772;1253;61536;-85
2024/03/03 11:19:41;;;;;;;12.80;7.50;;;;;;;10.54;50.05;101027.21;106550;1258;62299;-87
2024/03/03 11:22:28;;;;;;;6.20;4.00;;;;;;;10.54;51.68;101029.85;106408;1253;76008;-86
2024/03/03 11:25:09;;;;;;;7.60;4.40;;;;;;;10.58;52.32;101032.44;106341;1253;68660;-86
2024/03/03 11:27:51;;;;;;;8.40;4.50;;;;;;;10.53;51.79;101028.70;106733;1253;73654;-86
2024/03/03 11:30:31;;;;;;;6.90;3.90;;;;;;;10.46;52.30;101028.48;108609;1253;60434;-86
2024/03/03 11:33:11;;;;;;;6.90;3.80;;;;;;;10.41;53.02;101028.63;106648;1253;61242;-86
2024/03/03 11:35:52;;;;;;;8.20;3.70;;;;;;;10.38;52.25;101027.29;106564;1257;75463;-87
2024/03/03 11:39:03;;;;;;;7.00;3.60;;;;;;;10.33;52.28;101025.52;106654;1256;70883;-86
2024/03/03 11:41:50;;;;;;;8.80;3.80;;;;;;;10.23;52.98;101027.93;106376;1254;74836;-86
2024/03/03 11:44:42;;;;;;;5.80;3.50;;;;;;;10.01;52.09;101030.57;106480;1253;61504;-87
2024/03/03 11:47:22;;;;;;;10.00;5.00;;;;;;;9.82;52.48;101034.23;106463;1257;61230;-86
2024/03/03 11:50:02;;;;;;;5.90;3.80;;;;;;;9.79;52.52;101035.23;106515;1256;76927;-86
2024/03/03 11:52:45;;;;;;;7.60;4.30;;;;;;;9.78;53.13;101035.67;106543;1251;70024;-86
2024/03/03 11:55:43;;;;;;;7.90;4.00;;;;;;;9.80;53.06;101036.67;106466;1253;72654;-86
2024/03/03 11:58:23;;;;;;;6.60;3.50;;;;;;;9.77;52.64;101034.30;106473;1256;61610;-87
2024/03/03 12:01:15;;;;;;;6.50;3.40;;;;;;;9.60;52.93;101029.84;106784;1254;61306;-87
2024/03/03 12:03:56;;;;;;;6.80;4.10;;;;;;;9.47;53.65;101030.30;106619;1253;75753;-86
2024/03/03 12:06:37;;;;;;;7.90;4.00;;;;;;;9.30;54.17;101025.83;106706;1256;70451;-84
2024/03/03 12:09:18;;;;;;;4.90;3.50;;;;;;;9.15;54.79;101021.03;107029;1253;73358;-85
2024/03/03 12:12:00;;;;;;;5.90;3.90;;;;;;;8.93;55.78;101016.48;106384;1256;61208;-84
2024/03/03 12:14:40;;;;;;;7.00;3.60;;;;;;;8.79;56.79;101011.08;106497;1253;61336;-85
2024/03/03 12:17:20;;;;;;;6.70;3.40;;;;;;;8.72;55.97;101013.11;106414;1251;77314;-85
2024/03/03 12:20:00;;;;;;;4.90;3.30;;;;;;;8.69;54.96;101010.67;106512;1253;71181;-86
2024/03/03 12:22:40;;;;;;;7.50;3.70;;;;;;;8.62;55.14;101013.80;106695;1251;74158;-86
2024/03/03 12:25:21;;;;;;;5.00;3.10;;;;;;;8.59;55.44;101020.23;106508;1253;61312;-85
2024/03/03 12:28:04;;;;;;;3.80;2.80;;;;;;;8.59;54.97;101018.33;106476;1252;61075;-84
2024/03/03 12:30:44;;;;;;;5.40;3.10;;;;;;;8.58;53.98;101020.89;106423;1253;76929;-86
2024/03/03 12:33:24;;;;;;;9.40;4.00;;;;;;;8.68;54.15;101021.45;106408;1253;70638;-86
2024/03/03 12:36:04;;;;;;;5.20;3.20;;;;;;;8.67;54.68;101022.63;106444;1254;74870;-86
2024/03/03 12:38:44;;;;;;;6.90;3.50;;;;;;;8.73;54.09;101017.61;106412;1253;61299;-85
2024/03/03 12:41:28;;;;;;;8.30;3.70;;;;;;;8.74;53.68;101019.62;106579;1258;62010;-86
2024/03/03 12:44:08;;;;;;;7.10;3.50;;;;;;;8.75;53.65;101021.70;107095;1253;74857;-85
2024/03/03 12:46:48;;;;;;;5.40;2.70;;;;;;;8.71;53.95;101025.03;107034;1253;67958;-86
2024/03/03 12:49:29;;;;;;;6.60;3.10;;;;;;;8.68;53.73;101023.85;106594;1254;74967;-87
2024/03/03 12:52:09;;;;;;;6.20;3.40;;;;;;;8.65;53.92;101027.79;106768;1253;60806;-87
2024/03/03 12:54:50;;;;;;;5.00;3.20;;;;;;;8.61;53.59;101023.71;106679;1253;61255;-86
2024/03/03 12:57:30;;;;;;;3.60;2.60;;;;;;;8.61;53.18;101025.99;106641;1253;76013;-90
2024/03/03 13:00:17;;;;;;;5.40;3.00;;;;;;;8.60;53.03;101034.69;106567;1253;69319;-87
2024/03/03 13:02:57;;;;;;;6.10;3.20;;;;;;;8.54;53.48;101030.42;107006;1254;74612;-84
2024/03/03 13:05:37;;;;;;;7.50;3.80;;;;;;;8.52;53.68;101032.30;106901;1253;61622;-86
2024/03/03 13:08:17;;;;;;;13.90;5.10;;;;;;;8.49;53.96;101031.22;106876;1255;62507;-89
2024/03/03 13:10:57;;;;;;;7.00;3.70;;;;;;;8.48;53.74;101028.27;106733;1257;77009;-89
2024/03/03 13:13:37;;;;;;;12.30;5.10;;;;;;;8.51;53.39;101029.57;106759;1254;70721;-86
2024/03/03 13:16:17;;;;;;;11.60;4.70;;;;;;;8.50;53.26;101027.36;106844;1253;72532;-89
2024/03/03 13:19:03;;;;;;;14.00;5.20;;;;;;;8.36;53.18;101023.23;106633;1258;61296;-86
2024/03/03 13:21:43;;;;;;;8.80;4.10;;;;;;;8.33;53.69;101027.42;106274;1253;61190;-86
2024/03/03 13:24:23;;;;;;;9.60;4.00;;;;;;;8.27;53.63;101030.48;106456;1254;76809;-88
2024/03/03 13:27:04;;;;;;;12.50;4.10;;;;;;;8.26;54.00;101028.90;106691;1257;70832;-86
2024/03/03 13:29:44;;;;;;;6.50;3.30;;;;;;;8.24;54.55;101028.65;106426;1253;73189;-88
2024/03/03 17:32:22;;;;;;;24.00;10.20;;;;;;;6.74;78.98;101059.23;107496;1253;61569;-87
2024/03/03 17:35:02;;;;;;;15.10;6.20;;;;;;;6.70;79.22;101061.48;106470;1254;76965;-87
2024/03/03 17:37:42;;;;;;;33.60;18.60;;;;;;;6.65;79.47;101061.42;106460;1256;68709;-86
2024/03/03 17:40:23;;;;;;;24.20;15.00;;;;;;;6.62;79.83;101060.42;106474;1253;74704;-87
2024/03/03 17:43:03;;;;;;;20.70;11.60;;;;;;;6.58;80.22;101060.34;106548;1252;61577;-86
2024/03/03 17:45:43;;;;;;;21.40;11.30;;;;;;;6.62;79.68;101062.23;106548;1254;62587;-89
2024/03/03 17:48:23;;;;;;;12.20;6.80;;;;;;;6.60;79.06;101067.08;106314;1253;76990;-89
2024/03/03 17:51:04;;;;;;;15.10;7.90;;;;;;;6.56;79.01;101061.60;106544;1251;68471;-89
2024/03/03 17:53:44;;;;;;;14.20;8.70;;;;;;;6.57;78.71;101065.54;106418;1256;72455;-86
2024/03/03 17:56:24;;;;;;;16.70;8.20;;;;;;;6.42;78.95;101066.61;106444;1253;61379;-86
2024/03/03 17:59:04;;;;;;;18.10;10.40;;;;;;;6.42;79.06;101068.10;106357;1252;61286;-89
2024/03/03 18:01:44;;;;;;;11.10;6.50;;;;;;;6.40;78.53;101069.30;107062;1253;76149;-87
2024/03/03 18:04:18;;;;;;;13.70;6.30;;;;;;;6.35;78.44;101074.08;107536;1253;71033;-88
2024/03/03 18:06:52;;;;;;;13.50;6.80;;;;;;;6.31;78.75;101075.66;106838;1253;73866;-89
2024/03/03 18:09:32;;;;;;;13.30;7.40;;;;;;;6.29;78.88;101080.88;106426;1254;61377;-89
2024/03/03 18:12:12;;;;;;;19.70;10.90;;;;;;;6.32;79.38;101079.48;106647;1256;63142;-89
2024/03/03 18:14:46;;;;;;;26.10;13.50;;;;;;;6.29;79.83;101080.86;106271;1258;78032;-89
2024/03/03 18:17:26;;;;;;;25.50;13.70;;;;;;;6.24;80.63;101080.54;106566;1256;70969;-89
2024/03/03 18:20:06;;;;;;;30.70;15.60;;;;;;;6.18;82.04;101081.70;106486;1253;75277;-89
2024/03/03 18:22:40;;;;;;;30.20;16.40;;;;;;;6.20;82.15;101080.81;106996;1252;61369;-89
2024/03/03 18:25:15;;;;;;;34.10;16.20;;;;;;;6.22;82.73;101081.67;109329;1253;59261;-90
2024/03/03 18:27:55;;;;;;;35.60;16.70;;;;;;;6.23;83.03;101083.94;108366;1254;74791;-87
2024/03/03 18:30:35;;;;;;;36.80;16.40;;;;;;;6.26;83.11;101082.92;106432;1254;68786;-88
2024/03/03 18:33:10;;;;;;;25.80;11.40;;;;;;;6.27;82.88;101086.13;106571;1253;72758;-88
2024/03/03 18:35:44;;;;;;;25.20;11.40;;;;;;;6.27;83.27;101083.41;106528;1253;61291;-88
2024/03/03 18:38:24;;;;;;;22.70;10.40;;;;;;;6.28;83.21;101081.45;107283;1257;60915;-89
2024/03/03 18:41:04;;;;;;;20.40;10.20;;;;;;;6.26;83.10;101083.25;106458;1253;76719;-89
2024/03/03 18:43:38;;;;;;;15.10;7.60;;;;;;;6.24;83.04;101084.16;106418;1256;69508;-89
2024/03/03 18:46:12;;;;;;;12.80;6.70;;;;;;;6.28;82.28;101083.61;106569;1255;76353;-89
2024/03/03 18:48:52;;;;;;;14.90;7.00;;;;;;;6.30;81.76;101077.85;106401;1254;61458;-88
2024/03/03 18:51:33;;;;;;;14.70;7.80;;;;;;;6.29;81.84;101082.50;106304;1257;61160;-89
2024/03/03 18:54:07;;;;;;;16.20;7.20;;;;;;;6.29;82.06;101083.58;106841;1252;74671;-88
2024/03/03 18:56:48;;;;;;;17.60;8.00;;;;;;;6.30;82.15;101079.63;106945;1253;69591;-89
2024/03/03 18:59:22;;;;;;;16.70;8.70;;;;;;;6.27;82.64;101085.92;106667;1253;76518;-86
2024/03/03 19:01:56;;;;;;;26.30;11.80;;;;;;;6.24;83.28;101084.29;106657;1253;61338;-89
2024/03/03 19:04:37;;;;;;;24.40;12.30;;;;;;;6.25;83.44;101080.16;106519;1254;61691;-89
2024/03/03 19:07:11;;;;;;;26.40;14.10;;;;;;;6.27;83.31;101084.96;106514;1253;75240;-89
2024/03/03 19:09:52;;;;;;;24.40;12.70;;;;;;;6.26;83.71;101085.02;106560;1257;70106;-87
2024/03/03 19:12:32;;;;;;;18.70;10.40;;;;;;;6.21;84.42;101083.05;107492;1254;73214;-86
2024/03/03 19:15:00;;;;;;;18.30;9.60;;;;;;;6.21;84.72;101085.19;106917;1253;62875;-89
2024/03/03 19:17:40;;;;;;;17.30;9.10;;;;;;;6.19;85.29;101090.19;108185;1252;61057;-87
2024/03/03 19:20:21;;;;;;;12.30;6.50;;;;;;;6.14;86.03;101086.71;107946;1253;76968;-88
2024/03/03 19:22:54;;;;;;;22.50;8.30;;;;;;;6.16;86.11;101085.17;106546;1253;70873;-89
2024/03/03 19:25:38;;;;;;;25.60;13.40;;;;;;;6.17;86.29;101081.95;106518;1253;74134;-88
2024/03/03 19:28:19;;;;;;;21.00;11.00;;;;;;;6.29;85.62;101079.25;106501;1253;61374;-88
2024/03/03 19:30:53;;;;;;;18.80;9.50;;;;;;;6.23;86.85;101081.16;106593;1256;61158;-87
2024/03/03 19:33:33;;;;;;;16.60;7.90;;;;;;;6.21;87.09;101081.67;106606;1251;75469;-88
2024/03/03 19:36:07;;;;;;;19.00;9.30;;;;;;;6.25;87.20;101083.98;106649;1253;69624;-87
2024/03/03 19:38:48;;;;;;;18.80;9.50;;;;;;;6.31;87.18;101082.80;106442;1253;74993;-86
2024/03/03 19:41:28;;;;;;;18.20;9.80;;;;;;;6.28;87.63;101083.20;106682;1256;61263;-88
2024/03/03 19:44:04;;;;;;;21.90;11.00;;;;;;;6.34;87.44;101084.03;107043;1253;61730;-87
2024/03/03 19:46:47;;;;;;;18.10;10.60;;;;;;;6.39;86.80;101086.91;106615;1255;76130;-85
2024/03/03 19:49:28;;;;;;;18.10;9.00;;;;;;;6.29;87.86;101084.92;106430;1253;70831;-89
2024/03/03 19:52:04;;;;;;;16.60;8.70;;;;;;;6.23;88.41;101084.02;106842;1253;75078;-89
2024/03/03 19:54:44;;;;;;;12.30;7.40;;;;;;;6.31;88.27;101085.21;106726;1257;62100;-87
2024/03/03 19:57:25;;;;;;;17.60;7.80;;;;;;;6.34;87.77;101090.06;106718;1253;61443;-85
2024/03/03 20:00:13;;;;;;;15.00;8.70;;;;;;;6.36;87.66;101085.93;106529;1253;75597;-86
2024/03/03 20:02:54;;;;;;;19.80;10.10;;;;;;;6.31;87.74;101091.60;106534;1258;71803;-89
2024/03/03 20:05:34;;;;;;;14.80;7.90;;;;;;;6.29;87.79;101087.17;106511;1254;74825;-86
2024/03/03 20:08:08;;;;;;;14.90;8.00;;;;;;;6.28;87.98;101090.08;106485;1256;61963;-88
2024/03/03 20:10:48;;;;;;;11.70;6.50;;;;;;;6.25;88.06;101086.91;106521;1253;61271;-89
2024/03/03 20:13:23;;;;;;;11.50;7.20;;;;;;;6.13;89.28;101081.23;106391;1253;77075;-87
2024/03/03 20:16:03;;;;;;;16.10;8.90;;;;;;;6.14;89.41;101080.63;106826;1254;70892;-89
2024/03/03 20:18:49;;;;;;;14.60;8.00;;;;;;;6.09;89.45;101077.13;106546;1254;74199;-89
2024/03/03 20:21:26;;;;;;;17.90;8.20;;;;;;;6.09;89.20;101072.79;106665;1254;61354;-89
2024/03/03 20:24:06;;;;;;;16.30;9.60;;;;;;;6.03;88.87;101076.49;106644;1251;62426;-89
2024/03/03 20:26:46;;;;;;;13.30;7.10;;;;;;;5.98;88.86;101077.38;106555;1256;76733;-87
2024/03/03 20:29:15;;;;;;;17.90;8.00;;;;;;;5.96;88.61;101079.63;106496;1252;70696;-89
2024/03/03 20:31:55;;;;;;;13.00;7.10;;;;;;;5.88;88.93;101079.64;106409;1253;74131;-86
2024/03/03 20:34:35;;;;;;;16.70;8.50;;;;;;;5.81;89.54;101078.23;106380;1259;61561;-86
2024/03/03 20:37:09;;;;;;;12.20;6.60;;;;;;;5.81;89.19;101074.07;106480;1253;62446;-89
2024/03/03 20:39:49;;;;;;;18.20;7.40;;;;;;;5.76;89.02;101071.89;106544;1256;75766;-89
2024/03/03 20:42:23;;;;;;;15.40;8.00;;;;;;;5.73;88.89;101073.39;106413;1253;68779;-87
2024/03/03 20:45:04;;;;;;;12.00;6.90;;;;;;;5.61;89.99;101075.08;106460;1257;74944;-87
2024/03/03 20:47:44;;;;;;;13.00;7.00;;;;;;;5.61;90.00;101074.22;106671;1254;61238;-88
2024/03/03 20:50:18;;;;;;;9.00;6.10;;;;;;;5.62;89.97;101081.16;106374;1253;61213;-87
2024/03/03 20:52:58;;;;;;;10.00;5.80;;;;;;;5.54;90.11;101079.86;108100;1253;75829;-88
2024/03/03 20:55:40;;;;;;;11.20;7.10;;;;;;;5.48;90.46;101076.98;108240;1256;69513;-87
2024/03/03 20:58:15;;;;;;;;;;;;;;;5.43;90.72;101079.59;106911;1253;71709;-87
2024/03/03 21:00:56;;;;;;;11.50;5.40;;;;;;;5.45;90.50;101078.13;107682;1251;62244;-89
2024/03/03 21:03:36;;;;;;;9.80;6.00;;;;;;;5.45;89.56;101076.44;106615;1253;62258;-87
2024/03/03 21:06:10;;;;;;;14.50;7.40;;;;;;;5.35;89.87;101078.09;106671;1258;75983;-87
2024/03/03 21:08:50;;;;;;;14.10;7.50;;;;;;;5.28;89.86;101075.12;106544;1254;68901;-89
2024/03/03 21:11:27;;;;;;;14.40;7.10;;;;;;;5.15;90.32;101072.12;106491;1253;73665;-87
2024/03/03 21:14:06;;;;;;;14.70;8.10;;;;;;;4.92;91.03;101069.40;108060;1253;61270;-89
2024/03/03 21:16:46;;;;;;;13.10;7.10;;;;;;;4.85;91.12;101072.13;107363;1256;61251;-87
2024/03/03 21:19:20;;;;;;;10.90;6.40;;;;;;;4.83;90.66;101071.19;106997;1253;75659;-87
2024/03/03 21:22:00;;;;;;;13.10;6.30;;;;;;;4.76;90.70;101073.89;107274;1252;69229;-88
2024/03/03 21:24:43;;;;;;;17.00;7.10;;;;;;;4.54;91.97;101079.04;107510;1257;72647;-89
2024/03/03 21:27:16;;;;;;;14.60;8.70;;;;;;;4.47;92.63;101078.20;108831;1254;61333;-88
2024/03/03 21:29:55;;;;;;;;;;;;;;;4.49;92.25;101076.89;108302;1252;61193;-87
2024/03/03 21:32:35;;;;;;;14.20;7.70;;;;;;;4.39;92.18;101079.23;107197;1254;74678;-87
2024/03/03 21:35:16;;;;;;;15.30;8.00;;;;;;;4.27;92.45;101074.38;106908;1253;66338;-89
2024/03/03 21:37:55;;;;;;;15.40;7.20;;;;;;;4.22;92.52;101080.64;106787;1253;72217;-88
2024/03/03 21:40:36;;;;;;;16.40;7.60;;;;;;;4.19;92.33;101081.37;106659;1258;61230;-87
2024/03/03 21:43:16;;;;;;;19.40;8.70;;;;;;;4.09;92.29;101078.83;106601;1259;61244;-87
2024/03/03 21:45:56;;;;;;;16.90;8.50;;;;;;;3.96;93.24;101078.02;106590;1252;75254;-88
2024/03/03 21:48:36;;;;;;;22.60;10.10;;;;;;;3.89;93.51;101077.41;106583;1256;68438;-87